Time;durP1;ratioP1;P1;durP2;ratioP2;P2;SDS_P1;SDS_P2;PMS_P1;PMS_P2;Temp;Humidity;BMP_temperature;BMP_pressure;BME280_temperature;BME280_humidity;BME280_pressure;Samples;Min_cycle;Max_cycle;Signal;HPM_P1;HPM_P2
2023/03/03 00:02:16;;;;;;;;;68.25;50.00;;;;;5.39;59.83;99349.31;5095462;27;46549;-79
2023/03/03 00:04:42;;;;;;;;;64.00;52.67;;;;;5.37;59.99;99356.31;5093713;27;45403;-81
2023/03/03 00:07:07;;;;;;;;;62.25;49.75;;;;;5.38;60.00;99351.97;5094050;27;45408;-79
2023/03/03 00:09:32;;;;;;;;;69.25;49.50;;;;;5.36;59.86;99348.53;5093887;27;45533;-80
2023/03/03 00:12:02;;;;;;;;;60.00;49.00;;;;;5.35;60.08;99354.66;5093576;27;46914;-79
2023/03/03 00:14:30;;;;;;;;;60.67;47.33;;;;;5.31;59.78;99348.59;5095303;27;45344;-80
2023/03/03 00:16:59;;;;;;;;;67.33;49.00;;;;;5.29;60.05;99354.72;5095193;27;45466;-81
2023/03/03 00:19:24;;;;;;;;;65.67;48.67;;;;;5.24;60.05;99347.81;5094597;27;45374;-83
2023/03/03 00:21:51;;;;;;;;;63.67;48.00;;;;;5.23;59.79;99353.06;5095203;27;45424;-80
2023/03/03 00:24:24;;;;;;;;;67.00;53.25;;;;;5.19;60.04;99360.09;5094855;27;45521;-80
2023/03/03 00:26:59;;;;;;;;;65.50;48.25;;;;;5.15;59.76;99358.41;5094953;27;45379;-78
2023/03/03 00:29:36;;;;;;;;;64.75;50.00;;;;;5.10;60.31;99360.22;5094468;27;45398;-78
2023/03/03 00:32:11;;;;;;;;;65.00;51.75;;;;;5.07;60.35;99354.16;5093962;27;46037;-78
2023/03/03 00:34:36;;;;;;;;;69.75;53.00;;;;;5.07;60.58;99367.22;5094742;27;45278;-79
2023/03/03 00:37:03;;;;;;;;;72.00;51.00;;;;;5.07;60.94;99362.00;5094521;27;45351;-78
2023/03/03 00:39:34;;;;;;;;;68.00;52.75;;;;;5.06;60.44;99365.50;5096860;27;45553;-78
2023/03/03 00:42:03;;;;;;;;;71.25;52.75;;;;;5.06;60.25;99368.13;5113058;27;48308;-78
2023/03/03 00:44:41;;;;;;;;;69.67;52.00;;;;;5.05;60.12;99364.63;5098650;27;45340;-79
2023/03/03 00:47:28;;;;;;;;;65.25;52.75;;;;;5.04;60.37;99370.75;5098258;27;45364;-80
2023/03/03 00:50:22;;;;;;;;;74.50;52.00;;;;;5.04;60.49;99373.38;5096712;27;45420;-80
2023/03/03 00:53:00;;;;;;;;;65.00;52.67;;;;;5.05;60.39;99374.22;5077379;28;45464;-79
2023/03/03 00:55:26;;;;;;;;;74.25;55.50;;;;;5.02;60.49;99372.53;5095186;27;45390;-78
2023/03/03 00:57:51;;;;;;;;;78.25;55.25;;;;;4.99;60.19;99366.50;5097960;27;45348;-78
2023/03/03 01:00:20;;;;;;;;;67.50;52.25;;;;;4.98;60.71;99364.75;5096710;27;45343;-79
2023/03/03 01:02:47;;;;;;;;;69.25;51.50;;;;;4.95;60.79;99370.03;5098139;27;45567;-78
2023/03/03 01:05:14;;;;;;;;;76.00;54.00;;;;;4.92;61.12;99376.16;5096334;27;45412;-78
2023/03/03 01:07:39;;;;;;;;;62.25;45.50;;;;;4.90;60.89;99381.38;5097976;27;45304;-78
2023/03/03 01:10:05;;;;;;;;;65.75;50.25;;;;;4.86;60.97;99374.47;5096545;27;45478;-78
2023/03/03 01:12:31;;;;;;;;;71.50;54.75;;;;;4.83;61.54;99378.91;5097550;27;46376;-78
2023/03/03 01:14:56;;;;;;;;;70.50;54.25;;;;;4.79;61.59;99375.44;5097798;27;45349;-79
2023/03/03 01:17:22;;;;;;;;;79.00;55.67;;;;;4.76;61.12;99378.09;5096673;27;45173;-78
2023/03/03 01:19:47;;;;;;;;;70.25;53.50;;;;;4.74;61.72;99381.59;5097835;27;45401;-79
2023/03/03 01:22:27;;;;;;;;;69.00;51.75;;;;;4.72;61.58;99380.75;5097925;27;46215;-78
2023/03/03 01:24:53;;;;;;;;;68.75;53.00;;;;;4.66;61.36;99379.09;5083229;27;45477;-79
2023/03/03 01:27:18;;;;;;;;;68.00;53.25;;;;;4.64;61.26;99386.09;5097564;27;45377;-79
2023/03/03 01:29:43;;;;;;;;;63.50;49.25;;;;;4.61;61.94;99393.09;5097780;27;45454;-78
2023/03/03 01:32:09;;;;;;;;;70.75;53.00;;;;;4.57;61.58;99390.50;5096259;27;48040;-79
2023/03/03 01:34:34;;;;;;;;;73.50;54.75;;;;;4.56;61.92;99388.78;5097675;27;45250;-78
2023/03/03 01:37:00;;;;;;;;;60.50;45.25;;;;;4.54;62.25;99389.69;5097713;27;45746;-79
2023/03/03 01:39:26;;;;;;;;;66.00;47.50;;;;;4.53;62.51;99385.34;5096245;27;45391;-79
2023/03/03 01:41:51;;;;;;;;;63.50;49.00;;;;;4.51;62.14;99385.38;5096987;27;46610;-79
2023/03/03 01:44:16;;;;;;;;;67.50;51.75;;;;;4.52;62.47;99391.47;5097096;27;45258;-79
2023/03/03 01:46:53;;;;;;;;;71.00;53.00;;;;;4.53;62.05;99393.16;5096985;27;45408;-79
2023/03/03 01:49:36;;;;;;;;;73.75;55.00;;;;;4.51;62.02;99390.59;5084851;27;45361;-79
2023/03/03 01:52:13;;;;;;;;;68.25;45.00;;;;;4.56;61.87;99387.91;5095715;27;46829;-79
2023/03/03 01:54:47;;;;;;;;;75.75;54.50;;;;;4.57;62.21;99384.44;5095774;27;45731;-79
2023/03/03 01:57:22;;;;;;;;;68.50;51.25;;;;;4.61;61.62;99383.50;5096717;27;45312;-79
2023/03/03 01:59:49;;;;;;;;;73.00;55.00;;;;;4.61;61.77;99387.88;5096852;27;45361;-79
2023/03/03 02:02:15;;;;;;;;;70.00;53.25;;;;;4.58;61.65;99380.94;5097119;27;45740;-79
2023/03/03 02:04:41;;;;;;;;;70.50;55.75;;;;;4.56;61.74;99382.69;5095494;27;45626;-79
2023/03/03 02:07:09;;;;;;;;;66.75;51.25;;;;;4.55;61.99;99389.66;5095878;27;45361;-78
2023/03/03 02:10:05;;;;;;;;;75.00;55.25;;;;;4.55;62.33;99386.19;5112925;27;45295;-78
2023/03/03 02:12:53;;;;;;;;;70.00;52.50;;;;;4.54;62.67;99385.31;5095157;27;46507;-79
2023/03/03 02:15:28;;;;;;;;;65.50;52.50;;;;;4.54;62.83;99385.31;5083147;27;45409;-78
2023/03/03 02:17:57;;;;;;;;;69.50;54.25;;;;;4.53;62.30;99383.59;5096751;27;45391;-79
2023/03/03 02:20:32;;;;;;;;;68.00;54.50;;;;;4.55;62.56;99384.44;5094557;27;45464;-79
2023/03/03 02:23:05;;;;;;;;;72.50;51.50;;;;;4.56;62.27;99385.31;5094621;27;48267;-79
2023/03/03 02:25:56;;;;;;;;;77.00;57.25;;;;;4.56;62.24;99385.31;5096846;27;45379;-78
2023/03/03 02:28:25;;;;;;;;;72.25;54.00;;;;;4.54;62.04;99387.94;5077719;27;45535;-79
2023/03/03 02:30:53;;;;;;;;;71.25;56.75;;;;;4.51;62.01;99388.00;5095764;27;45415;-79
2023/03/03 02:33:19;;;;;;;;;71.25;55.00;;;;;4.47;62.78;99382.81;5096469;27;46266;-79
2023/03/03 02:35:44;;;;;;;;;74.00;54.25;;;;;4.43;62.91;99384.59;5095774;27;45318;-79
2023/03/03 02:38:35;;;;;;;;;73.25;56.00;;;;;4.41;63.14;99388.09;5096627;27;45350;-79
2023/03/03 02:41:09;;;;;;;;;81.50;57.50;;;;;4.38;63.46;99377.69;5095296;27;45693;-79
2023/03/03 02:43:59;;;;;;;;;72.25;54.75;;;;;4.35;63.71;99381.22;5096254;27;45441;-79
2023/03/03 02:46:26;;;;;;;;;77.00;58.00;;;;;4.30;63.83;99375.16;5096005;27;45323;-78
2023/03/03 02:48:51;;;;;;;;;67.75;53.50;;;;;4.29;63.69;99377.78;5096401;27;45385;-78
2023/03/03 02:51:17;;;;;;;;;70.00;50.50;;;;;4.26;63.54;99376.06;5096420;27;45376;-78
2023/03/03 02:53:42;;;;;;;;;76.75;56.00;;;;;4.26;63.53;99383.03;5095764;27;46343;-79
2023/03/03 02:56:08;;;;;;;;;67.25;51.25;;;;;4.25;64.17;99387.41;5095950;27;45388;-79
2023/03/03 02:58:35;;;;;;;;;69.50;53.75;;;;;4.25;63.26;99378.69;5095165;27;45312;-79
2023/03/03 03:01:00;;;;;;;;;75.00;57.50;;;;;4.21;63.69;99376.13;5094088;27;45426;-79
2023/03/03 03:03:26;;;;;;;;;63.25;49.50;;;;;4.20;63.70;99382.22;5095793;27;45424;-78
2023/03/03 03:05:51;;;;;;;;;67.75;54.25;;;;;4.19;63.59;99382.22;5096183;27;45427;-79
2023/03/03 03:08:16;;;;;;;;;70.75;52.75;;;;;4.18;64.16;99381.41;5096013;27;45305;-79
2023/03/03 03:10:43;;;;;;;;;79.00;59.25;;;;;4.17;64.18;99382.28;5095844;27;45384;-79
2023/03/03 03:13:08;;;;;;;;;62.50;52.75;;;;;4.19;64.09;99385.69;5095545;27;46432;-79
2023/03/03 03:15:35;;;;;;;;;69.00;54.75;;;;;4.20;64.65;99387.44;5096321;27;45508;-79
2023/03/03 03:18:13;;;;;;;;;67.00;50.75;;;;;4.19;64.06;99395.28;5095979;27;45431;-79
2023/03/03 03:20:40;;;;;;;;;75.00;55.25;;;;;4.16;64.14;99390.97;5095737;27;45394;-78
2023/03/03 03:23:06;;;;;;;;;73.75;54.50;;;;;4.16;64.68;99390.13;5094169;27;47115;-79
2023/03/03 03:25:31;;;;;;;;;77.75;57.50;;;;;4.12;65.05;99393.63;5095583;27;45761;-80
2023/03/03 03:27:57;;;;;;;;;71.75;52.75;;;;;4.07;64.38;99393.66;5095558;27;45442;-79
2023/03/03 03:30:22;;;;;;;;;71.00;55.00;;;;;4.06;64.88;99393.66;5095480;27;45677;-79
2023/03/03 03:32:47;;;;;;;;;76.25;55.00;;;;;4.05;64.95;99397.16;5095440;27;45332;-79
2023/03/03 03:35:14;;;;;;;;;79.25;57.75;;;;;4.04;65.18;99388.47;5095683;27;45422;-79
2023/03/03 03:37:40;;;;;;;;;74.00;57.75;;;;;4.06;64.92;99396.28;5095034;27;45315;-79
2023/03/03 03:40:05;;;;;;;;;69.50;53.00;;;;;4.05;64.89;99390.19;5092936;27;45683;-80
2023/03/03 03:42:31;;;;;;;;;76.25;56.00;;;;;4.08;64.83;99395.38;5094593;27;46393;-79
2023/03/03 03:44:56;;;;;;;;;74.25;55.50;;;;;4.09;64.80;99399.72;5095625;27;45216;-79
2023/03/03 03:47:22;;;;;;;;;70.75;52.25;;;;;4.09;64.61;99404.94;5095569;27;45628;-79
2023/03/03 03:49:47;;;;;;;;;75.25;56.25;;;;;4.11;64.82;99394.50;5093978;27;45325;-78
2023/03/03 03:52:13;;;;;;;;;74.50;55.25;;;;;4.13;64.89;99408.41;5095213;27;45498;-78
2023/03/03 03:54:38;;;;;;;;;72.00;55.50;;;;;4.14;65.17;99399.69;5095139;27;45407;-79
2023/03/03 03:57:04;;;;;;;;;72.00;54.25;;;;;4.14;65.18;99399.69;5093357;27;45376;-79
2023/03/03 03:59:29;;;;;;;;;70.00;53.25;;;;;4.13;64.50;99395.34;5094985;27;45356;-79
2023/03/03 04:01:54;;;;;;;;;71.75;55.75;;;;;4.14;65.09;99397.94;5095217;27;45682;-80
2023/03/03 04:04:20;;;;;;;;;75.25;54.75;;;;;4.13;65.01;99395.34;5095386;27;45462;-79
2023/03/03 04:06:45;;;;;;;;;79.75;61.00;;;;;4.15;64.72;99396.22;5095359;27;45316;-79
2023/03/03 04:09:11;;;;;;;;;75.75;56.50;;;;;4.17;64.81;99402.28;5096081;27;45406;-79
2023/03/03 04:11:36;;;;;;;;;76.00;56.75;;;;;4.17;64.74;99397.94;5094490;27;45471;-79
2023/03/03 04:14:02;;;;;;;;;77.75;57.75;;;;;4.18;64.75;99393.56;5098413;27;45485;-78
2023/03/03 04:16:27;;;;;;;;;77.00;56.50;;;;;4.19;64.99;99392.66;5097526;27;45382;-79
2023/03/03 04:18:53;;;;;;;;;74.75;56.25;;;;;4.18;65.33;99399.66;5097396;27;45378;-80
2023/03/03 04:21:18;;;;;;;;;74.50;54.00;;;;;4.19;64.97;99401.34;5097824;27;46374;-79
2023/03/03 04:23:43;;;;;;;;;72.25;56.50;;;;;4.18;64.87;99398.78;5098449;27;45589;-79
2023/03/03 04:26:09;;;;;;;;;68.75;52.50;;;;;4.18;64.88;99404.00;5098866;27;45331;-79
2023/03/03 04:28:35;;;;;;;;;72.50;57.00;;;;;4.17;64.61;99400.53;5099089;27;45493;-79
2023/03/03 04:31:00;;;;;;;;;77.00;56.25;;;;;4.17;65.08;99405.75;5098356;27;45976;-78
2023/03/03 04:33:26;;;;;;;;;74.25;55.75;;;;;4.18;65.49;99406.63;5098747;27;45307;-79
2023/03/03 04:35:51;;;;;;;;;78.75;57.75;;;;;4.19;65.11;99413.53;5098574;27;45372;-79
2023/03/03 04:38:17;;;;;;;;;73.00;54.00;;;;;4.19;65.15;99401.34;5097029;27;45328;-79
2023/03/03 04:40:42;;;;;;;;;77.25;58.00;;;;;4.20;64.95;99408.31;5098606;27;45386;-78
2023/03/03 04:43:09;;;;;;;;;71.50;56.75;;;;;4.23;65.05;99402.19;5098458;27;45391;-78
2023/03/03 04:45:35;;;;;;;;;75.50;58.25;;;;;4.26;64.77;99398.69;5098608;27;45315;-79
2023/03/03 04:48:00;;;;;;;;;75.50;56.50;;;;;4.28;64.60;99399.56;5098044;27;45720;-78
2023/03/03 04:50:26;;;;;;;;;76.75;55.75;;;;;4.30;64.91;99405.63;5097886;27;46467;-78
2023/03/03 04:52:51;;;;;;;;;70.75;56.25;;;;;4.31;64.81;99405.59;5098141;27;45413;-78
2023/03/03 04:55:20;;;;;;;;;75.25;57.00;;;;;4.32;64.87;99404.72;5098919;27;45460;-79
2023/03/03 04:57:45;;;;;;;;;77.75;58.00;;;;;4.32;64.28;99398.66;5097856;27;45507;-78
2023/03/03 05:00:12;;;;;;;;;73.00;57.50;;;;;4.32;64.68;99399.50;5097953;27;46083;-79
2023/03/03 05:02:39;;;;;;;;;71.75;56.25;;;;;4.33;64.67;99408.22;5098428;27;45284;-79
2023/03/03 05:05:05;;;;;;;;;79.25;59.25;;;;;4.33;65.05;99395.16;5098050;27;45269;-79
2023/03/03 05:07:31;;;;;;;;;78.00;57.75;;;;;4.31;65.07;99405.59;5098084;27;45355;-79
2023/03/03 05:09:56;;;;;;;;;72.00;53.00;;;;;4.30;64.89;99408.22;5097749;27;45497;-79
2023/03/03 05:12:22;;;;;;;;;78.00;57.00;;;;;4.32;64.86;99409.94;5097526;27;45379;-78
2023/03/03 05:14:47;;;;;;;;;82.00;60.75;;;;;4.33;64.92;99410.81;5097965;27;45391;-79
2023/03/03 05:17:13;;;;;;;;;77.00;57.00;;;;;4.32;64.71;99409.94;5095872;27;45589;-79
2023/03/03 05:19:39;;;;;;;;;77.25;55.25;;;;;4.31;65.17;99405.59;5096875;27;45600;-79
2023/03/03 05:22:11;;;;;;;;;76.00;57.25;;;;;4.32;64.93;99406.47;5095546;27;45396;-80
2023/03/03 05:24:36;;;;;;;;;72.75;54.25;;;;;4.31;65.11;99408.22;5095838;27;45486;-79
2023/03/03 05:27:02;;;;;;;;;78.50;57.50;;;;;4.33;64.88;99403.84;5096376;27;45564;-79
2023/03/03 05:29:30;;;;;;;;;75.25;56.00;;;;;4.35;65.20;99409.94;5096593;27;46427;-79
2023/03/03 05:31:56;;;;;;;;;75.50;57.50;;;;;4.39;65.23;99405.50;5095488;27;45952;-79
2023/03/03 05:34:21;;;;;;;;;71.25;54.00;;;;;4.41;65.13;99409.84;5095106;27;45509;-79
2023/03/03 05:36:46;;;;;;;;;68.25;49.25;;;;;4.42;64.69;99415.94;5096896;27;45283;-79
2023/03/03 05:39:12;;;;;;;;;74.00;55.75;;;;;4.41;64.59;99416.81;5096595;27;46291;-79
2023/03/03 05:41:37;;;;;;;;;74.25;57.00;;;;;4.40;64.80;99410.72;5096940;27;45358;-79
2023/03/03 05:44:03;;;;;;;;;73.25;56.25;;;;;4.39;64.68;99409.00;5095552;27;45455;-79
2023/03/03 05:46:28;;;;;;;;;75.00;57.25;;;;;4.41;64.94;99412.44;5097142;27;45317;-79
2023/03/03 05:48:53;;;;;;;;;73.75;55.00;;;;;4.41;64.80;99415.06;5097357;27;46459;-79
2023/03/03 05:51:19;;;;;;;;;76.25;59.00;;;;;4.42;64.65;99414.19;5097154;27;45312;-80
2023/03/03 05:53:44;;;;;;;;;77.00;57.25;;;;;4.43;64.66;99409.81;5097503;27;45751;-80
2023/03/03 05:56:10;;;;;;;;;74.00;57.50;;;;;4.43;64.99;99413.31;5096793;27;45582;-79
2023/03/03 05:58:35;;;;;;;;;74.75;55.00;;;;;4.45;64.29;99418.50;5097045;27;45999;-80
2023/03/03 06:01:01;;;;;;;;;74.00;56.25;;;;;4.46;64.36;99415.88;5096384;27;45307;-80
2023/03/03 06:03:26;;;;;;;;;69.75;52.00;;;;;4.47;64.24;99415.00;5095187;27;45356;-80
2023/03/03 06:05:52;;;;;;;;;74.25;56.50;;;;;4.47;64.20;99420.22;5096684;27;45428;-79
2023/03/03 06:08:17;;;;;;;;;78.25;56.50;;;;;4.48;64.66;99408.91;5096568;27;45515;-79
2023/03/03 06:10:42;;;;;;;;;72.25;55.50;;;;;4.49;64.14;99415.84;5096171;27;45447;-79
2023/03/03 06:13:08;;;;;;;;;72.25;56.75;;;;;4.51;64.26;99415.84;5096843;27;45429;-80
2023/03/03 06:15:33;;;;;;;;;75.50;56.25;;;;;4.52;64.14;99421.03;5096933;27;45387;-80
2023/03/03 06:17:59;;;;;;;;;74.00;55.25;;;;;4.53;64.26;99422.75;5096260;27;46258;-80
2023/03/03 06:20:28;;;;;;;;;66.50;51.75;;;;;4.54;64.42;99432.31;5095978;27;45366;-80
2023/03/03 06:22:53;;;;;;;;;77.00;58.75;;;;;4.54;64.14;99431.44;5095778;27;45327;-79
2023/03/03 06:25:18;;;;;;;;;72.25;55.75;;;;;4.55;64.51;99430.56;5096002;27;45255;-79
2023/03/03 06:27:44;;;;;;;;;76.75;59.25;;;;;4.54;64.17;99426.22;5094250;27;47496;-79
2023/03/03 06:30:10;;;;;;;;;74.25;53.50;;;;;4.55;64.08;99439.25;5096130;27;45213;-82
2023/03/03 06:32:35;;;;;;;;;76.00;55.50;;;;;4.56;64.35;99440.13;5095740;27;45465;-79
2023/03/03 06:35:01;;;;;;;;;74.75;57.00;;;;;4.53;64.04;99435.81;5096605;27;45355;-81
2023/03/03 06:37:26;;;;;;;;;76.25;55.25;;;;;4.52;64.26;99438.47;5095343;27;46114;-80
2023/03/03 06:39:52;;;;;;;;;71.00;53.25;;;;;4.54;64.21;99436.66;5096997;27;45401;-80
2023/03/03 06:42:18;;;;;;;;;76.75;56.75;;;;;4.57;64.01;99442.72;5094907;27;45476;-81
2023/03/03 06:44:44;;;;;;;;;74.75;58.75;;;;;4.63;64.28;99448.78;5096006;27;45584;-80
2023/03/03 06:47:09;;;;;;;;;75.50;58.75;;;;;4.66;64.05;99452.22;5094320;27;46891;-81
2023/03/03 06:49:35;;;;;;;;;76.50;58.25;;;;;4.72;64.36;99449.53;5095922;27;45386;-79
2023/03/03 06:52:08;;;;;;;;;75.25;55.75;;;;;4.78;64.88;99448.59;5095624;27;45242;-80
2023/03/03 06:54:34;;;;;;;;;74.50;55.25;;;;;4.85;64.65;99448.53;5093744;27;45572;-80
2023/03/03 06:57:07;;;;;;;;;76.75;58.75;;;;;4.94;64.48;99454.50;5095232;27;45380;-81
2023/03/03 06:59:33;;;;;;;;;69.25;52.00;;;;;4.96;64.43;99457.97;5095637;27;45320;-80
2023/03/03 07:01:59;;;;;;;;;79.75;59.50;;;;;5.00;64.44;99459.66;5095542;27;45420;-79
2023/03/03 07:04:27;;;;;;;;;74.75;53.25;;;;;5.05;64.57;99463.06;5096082;27;45618;-80
2023/03/03 07:06:54;;;;;;;;;76.00;57.75;;;;;5.10;64.91;99466.50;5095560;27;46341;-80
2023/03/03 07:09:26;;;;;;;;;75.00;59.75;;;;;5.18;64.82;99464.66;5095154;27;45411;-79
2023/03/03 07:11:55;;;;;;;;;70.50;55.75;;;;;5.25;64.88;99464.53;5093883;27;45362;-80
2023/03/03 07:14:21;;;;;;;;;76.75;58.00;;;;;5.33;64.72;99472.31;5095163;27;45329;-80
2023/03/03 07:16:55;;;;;;;;;75.75;59.00;;;;;5.40;64.56;99470.44;5095615;27;45434;-79
2023/03/03 07:19:30;;;;;;;;;75.75;57.25;;;;;5.46;64.74;99473.00;5094524;27;45365;-80
2023/03/03 07:21:56;;;;;;;;;74.75;58.00;;;;;5.52;64.47;99471.16;5110861;27;45448;-81
2023/03/03 07:24:28;;;;;;;;;74.50;58.25;;;;;5.60;64.27;99471.03;5094939;27;45417;-80
2023/03/03 07:27:13;;;;;;;;;76.25;58.50;;;;;5.65;64.48;99469.22;5093078;27;47418;-81
2023/03/03 07:29:40;;;;;;;;;77.00;58.25;;;;;5.68;64.10;99468.31;5094950;27;45305;-80
2023/03/03 07:32:20;;;;;;;;;78.50;59.75;;;;;5.69;63.97;99468.31;5094508;27;45512;-80
2023/03/03 07:34:51;;;;;;;;;75.50;58.00;;;;;5.71;64.18;99474.34;5095208;27;45555;-80
2023/03/03 07:37:27;;;;;;;;;79.75;58.75;;;;;5.75;64.05;99477.78;5093494;27;48353;-80
2023/03/03 07:39:54;;;;;;;;;81.25;59.50;;;;;5.80;64.16;99462.91;5094673;27;45427;-79
2023/03/03 07:42:27;;;;;;;;;75.50;58.00;;;;;5.84;63.79;99465.44;5093399;27;45464;-79
2023/03/03 07:44:55;;;;;;;;;74.75;55.00;;;;;5.89;63.62;99470.63;5094616;27;45458;-79
2023/03/03 07:47:34;;;;;;;;;73.00;56.75;;;;;5.92;63.70;99475.81;5094291;27;45495;-79
2023/03/03 07:50:15;;;;;;;;;75.25;56.75;;;;;5.93;63.35;99465.31;5095195;27;45374;-79
2023/03/03 07:52:58;;;;;;;;;76.00;59.00;;;;;5.96;63.32;99464.41;5093419;27;45431;-80
2023/03/03 07:55:35;;;;;;;;;72.50;55.25;;;;;6.00;63.13;99473.09;5094368;27;45437;-79
2023/03/03 07:58:13;;;;;;;;;77.50;56.00;;;;;6.02;63.50;99474.81;5094225;27;45431;-79
2023/03/03 08:00:38;;;;;;;;;76.75;57.25;;;;;6.06;62.92;99480.81;5094945;27;45459;-79
2023/03/03 08:03:14;;;;;;;;;73.75;58.00;;;;;6.08;63.05;99484.28;5093437;27;45428;-79
2023/03/03 08:05:45;;;;;;;;;76.50;55.25;;;;;6.07;63.15;99478.19;5094604;27;45461;-79
2023/03/03 08:08:15;;;;;;;;;72.00;56.00;;;;;6.11;63.13;99486.84;5094518;27;45494;-79
2023/03/03 08:10:47;;;;;;;;;78.25;58.75;;;;;6.14;62.62;99495.53;5094585;27;45322;-79
2023/03/03 08:13:23;;;;;;;;;73.75;56.50;;;;;6.17;62.56;99487.63;5094294;27;45490;-80
2023/03/03 08:15:51;;;;;;;;;73.25;56.00;;;;;6.22;62.55;99484.91;5094443;27;45471;-80
2023/03/03 08:18:33;;;;;;;;;77.00;56.50;;;;;6.26;62.69;99489.22;5094760;27;45494;-79
2023/03/03 08:21:22;;;;;;;;;81.75;56.75;;;;;6.30;62.36;99486.53;5095013;27;45352;-80
2023/03/03 08:23:50;;;;;;;;;67.50;54.25;;;;;6.37;62.16;99491.69;5085979;27;45457;-79
2023/03/03 08:26:17;;;;;;;;;68.50;49.25;;;;;6.40;62.15;99486.34;5094177;27;45488;-79
2023/03/03 08:28:43;;;;;;;;;78.50;59.25;;;;;6.45;62.33;99485.41;5093983;27;46216;-79
2023/03/03 08:31:09;;;;;;;;;73.25;57.75;;;;;6.49;61.87;99476.59;5093420;27;45349;-80
2023/03/03 08:33:34;;;;;;;;;78.25;59.25;;;;;6.55;61.95;99486.94;5094036;27;45756;-80
2023/03/03 08:36:00;;;;;;;;;74.75;58.75;;;;;6.61;61.90;99481.59;5093423;27;45659;-79
2023/03/03 08:38:26;;;;;;;;;84.25;59.50;;;;;6.67;61.83;99478.03;5093522;27;46320;-79
2023/03/03 08:40:51;;;;;;;;;78.50;59.50;;;;;6.75;61.63;99483.09;5093998;27;45402;-79
2023/03/03 08:43:20;;;;;;;;;78.25;59.25;;;;;6.81;61.47;99481.25;5094416;27;45418;-79
2023/03/03 08:45:47;;;;;;;;;78.00;60.25;;;;;6.87;61.41;99482.88;5093810;27;45519;-80
2023/03/03 08:48:13;;;;;;;;;70.50;55.00;;;;;6.91;61.25;99482.78;5093967;27;46218;-80
2023/03/03 08:50:39;;;;;;;;;77.00;59.00;;;;;6.98;61.01;99484.41;5092382;27;46005;-80
2023/03/03 08:53:06;;;;;;;;;79.50;59.75;;;;;7.04;61.02;99488.63;5093936;27;45387;-80
2023/03/03 08:55:31;;;;;;;;;76.00;57.50;;;;;7.08;60.71;99486.81;5092694;27;45496;-80
2023/03/03 08:57:57;;;;;;;;;77.75;59.00;;;;;7.09;60.53;99483.31;5093749;27;45434;-80
2023/03/03 09:00:23;;;;;;;;;71.00;54.50;;;;;7.12;60.77;99489.34;5095949;27;45428;-79
2023/03/03 09:02:50;;;;;;;;;77.50;56.00;;;;;7.16;60.37;99484.91;5096023;27;45515;-80
2023/03/03 09:05:17;;;;;;;;;76.75;55.50;;;;;7.16;60.47;99491.03;5095451;27;45408;-79
2023/03/03 09:07:44;;;;;;;;;77.75;58.75;;;;;7.17;60.47;99486.66;5095785;27;45413;-80
2023/03/03 09:10:13;;;;;;;;;81.25;60.00;;;;;7.19;60.58;99490.13;5095347;27;45494;-79
2023/03/03 09:12:41;;;;;;;;;75.25;59.00;;;;;7.25;60.07;99496.06;5096224;27;45454;-79
2023/03/03 09:15:34;;;;;;;;;78.00;61.50;;;;;7.30;59.72;99491.59;5097487;27;45329;-80
2023/03/03 09:18:14;;;;;;;;;74.75;57.50;;;;;7.35;59.86;99496.75;5097460;27;46111;-79
2023/03/03 09:20:42;;;;;;;;;76.25;57.75;;;;;7.44;59.60;99500.94;5095941;27;45356;-79
2023/03/03 09:23:37;;;;;;;;;72.25;53.25;;;;;7.55;59.25;99496.31;5097142;27;45442;-79
2023/03/03 09:26:21;;;;;;;;;75.00;57.75;;;;;7.64;58.77;99498.75;5096460;27;45550;-79
2023/03/03 09:28:46;;;;;;;;;79.25;61.00;;;;;7.65;58.32;99498.72;5097025;27;45523;-80
2023/03/03 09:31:26;;;;;;;;;72.00;58.00;;;;;7.63;58.73;99505.75;5097079;27;45478;-80
2023/03/03 09:33:56;;;;;;;;;73.25;55.75;;;;;7.67;59.08;99503.94;5097389;27;45417;-79
2023/03/03 09:36:26;;;;;;;;;76.75;56.50;;;;;7.72;58.16;99505.53;5096901;27;45453;-79
2023/03/03 09:38:59;;;;;;;;;73.75;59.00;;;;;7.76;58.92;99502.84;5096732;27;45383;-79
2023/03/03 09:42:01;;;;;;;;;75.25;58.00;;;;;7.78;58.79;99501.06;5096874;27;45341;-78
2023/03/03 09:44:41;;;;;;;;;83.00;60.00;;;;;7.79;58.58;99503.66;5096119;27;45495;-78
2023/03/03 09:47:12;;;;;;;;;79.25;58.00;;;;;7.88;58.73;99505.19;5096472;27;45444;-80
2023/03/03 09:50:09;;;;;;;;;76.50;58.50;;;;;7.95;58.44;99502.41;5095121;27;46895;-81
2023/03/03 09:53:08;;;;;;;;;77.50;60.00;;;;;8.01;58.45;99507.50;5075985;28;45468;-80
2023/03/03 09:55:53;;;;;;;;;79.00;59.50;;;;;8.03;58.08;99508.34;5112352;27;45402;-80
2023/03/03 09:58:24;;;;;;;;;77.75;59.25;;;;;8.02;58.29;99511.88;5096418;27;45326;-80
2023/03/03 10:00:55;;;;;;;;;73.50;57.50;;;;;8.06;58.05;99507.38;5084139;27;45719;-80
2023/03/03 10:03:57;;;;;;;;;78.50;57.50;;;;;8.10;58.13;99514.28;5096409;27;45330;-80
2023/03/03 10:06:44;;;;;;;;;75.50;58.50;;;;;8.12;58.01;99507.25;5096630;27;45568;-81
2023/03/03 10:09:37;;;;;;;;;75.00;55.25;;;;;8.15;57.89;99514.19;5096795;27;45394;-78
2023/03/03 10:12:29;;;;;;;;;76.50;57.50;;;;;8.21;57.83;99511.44;5082626;27;45373;-80
2023/03/03 10:15:15;;;;;;;;;73.00;57.00;;;;;8.26;57.70;99514.78;5096398;27;45461;-80
2023/03/03 10:18:03;;;;;;;;;71.75;54.00;;;;;8.31;57.40;99505.91;5096277;27;45410;-80
2023/03/03 10:20:50;;;;;;;;;74.75;57.25;;;;;8.33;57.07;99508.53;5094706;27;45569;-80
2023/03/03 10:23:20;;;;;;;;;79.50;59.50;;;;;8.35;56.69;99512.84;5096602;27;46631;-80
2023/03/03 10:26:04;;;;;;;;;75.50;58.75;;;;;8.41;56.85;99514.44;5094424;27;45559;-80
2023/03/03 10:28:54;;;;;;;;;81.25;61.25;;;;;8.45;57.64;99509.97;5094749;27;45473;-80
2023/03/03 10:31:38;;;;;;;;;73.75;57.25;;;;;8.46;57.07;99509.94;5096133;27;45441;-80
2023/03/03 10:34:48;;;;;;;;;68.25;50.50;;;;;8.48;57.36;99510.78;5094284;27;47188;-80
2023/03/03 10:37:40;;;;;;;;;69.25;54.25;;;;;8.52;57.40;99512.41;5066841;27;45556;-79
2023/03/03 10:40:17;;;;;;;;;77.75;58.25;;;;;8.59;56.98;99513.97;5096603;27;45348;-80
2023/03/03 10:42:48;;;;;;;;;75.75;60.00;;;;;8.68;57.25;99512.88;5082251;27;45423;-80
2023/03/03 10:45:34;;;;;;;;;76.25;58.00;;;;;8.71;57.01;99516.28;5094242;27;46841;-80
2023/03/03 10:48:08;;;;;;;;;77.75;58.25;;;;;8.73;56.97;99506.59;5095265;27;45392;-80
2023/03/03 10:50:53;;;;;;;;;79.75;60.00;;;;;8.75;56.56;99502.16;5095859;27;45319;-80
2023/03/03 10:53:44;;;;;;;;;75.25;54.25;;;;;8.81;56.78;99506.41;5095640;27;45481;-80
2023/03/03 10:56:35;;;;;;;;;72.50;55.50;;;;;8.87;56.59;99508.88;5095408;27;46603;-80
2023/03/03 10:59:22;;;;;;;;;73.75;54.00;;;;;9.00;56.20;99509.41;5098341;27;45337;-80
2023/03/03 11:02:00;;;;;;;;;78.25;58.25;;;;;9.07;56.40;99503.03;5093163;27;45425;-80
2023/03/03 11:04:59;;;;;;;;;80.00;59.50;;;;;9.13;56.00;99505.50;5093859;27;45653;-80
2023/03/03 11:07:49;;;;;;;;;76.50;57.00;;;;;9.19;55.65;99501.84;5084631;27;45986;-80
2023/03/03 11:10:26;;;;;;;;;77.75;59.75;;;;;9.22;55.01;99504.38;5081403;27;45357;-80
2023/03/03 11:13:17;;;;;;;;;74.50;58.00;;;;;9.24;54.75;99502.56;5093544;27;45338;-81
2023/03/03 11:16:19;;;;;;;;;79.00;57.25;;;;;9.25;54.48;99494.63;5093021;27;45565;-78
2023/03/03 11:19:06;;;;;;;;;70.75;51.50;;;;;9.21;52.91;99494.78;5083897;27;47089;-80
2023/03/03 11:22:00;;;;;;;;;70.50;53.25;;;;;9.07;54.45;99489.88;5094750;27;45367;-78
2023/03/03 11:25:10;;;;;;;;;80.00;58.75;;;;;8.99;54.62;99486.63;5094233;27;45281;-79
2023/03/03 11:27:50;;;;;;;;;78.50;59.75;;;;;8.88;52.69;99486.06;5070960;27;45354;-80
2023/03/03 11:30:34;;;;;;;;;77.75;57.50;;;;;8.72;53.59;99481.19;5093290;27;48214;-80
2023/03/03 11:33:08;;;;;;;;;75.75;57.50;;;;;8.62;54.20;99478.88;5081905;27;45460;-81
2023/03/03 11:35:42;;;;;;;;;76.25;54.75;;;;;8.50;54.41;99487.94;5095034;27;45350;-78
2023/03/03 11:38:19;;;;;;;;;79.50;57.75;;;;;8.40;53.55;99484.66;5094690;27;45399;-80
2023/03/03 11:40:56;;;;;;;;;77.25;59.00;;;;;8.29;54.72;99488.44;5093680;27;46131;-80
2023/03/03 11:43:46;;;;;;;;;70.25;55.50;;;;;8.18;54.67;99470.34;5094338;27;45724;-79
2023/03/03 11:46:24;;;;;;;;;78.75;58.25;;;;;8.12;54.90;99469.63;5081698;27;45394;-81